createdAt,value
2022-08-21T00:01:42.936Z,54.10
2022-08-21T00:04:10.546Z,54.24
2022-08-21T00:06:37.923Z,53.92
2022-08-21T00:09:06.920Z,54.31
2022-08-21T00:11:37.176Z,54.14
2022-08-21T00:14:05.265Z,54.32
2022-08-21T00:16:31.766Z,54.47
2022-08-21T00:18:58.676Z,54.33
2022-08-21T00:21:26.507Z,54.20
2022-08-21T00:23:53.261Z,54.28
2022-08-21T00:26:19.786Z,54.38
2022-08-21T00:28:47.050Z,54.46
2022-08-21T00:31:13.631Z,54.35
2022-08-21T00:33:40.222Z,54.46
2022-08-21T00:36:06.930Z,54.60
2022-08-21T00:38:34.459Z,54.85
2022-08-21T00:41:32.230Z,54.68
2022-08-21T00:43:51.286Z,54.82
2022-08-21T00:46:18.865Z,55.06
2022-08-21T00:48:45.457Z,54.98
2022-08-21T00:51:23.899Z,54.90
2022-08-21T00:53:54.502Z,54.94
2022-08-21T00:56:23.903Z,54.83
2022-08-21T00:58:55.035Z,54.91
2022-08-21T01:01:22.471Z,54.87
2022-08-21T01:03:50.152Z,55.00
2022-08-21T01:06:17.182Z,55.24
2022-08-21T01:08:47.080Z,55.29
2022-08-21T01:11:16.005Z,54.96
2022-08-21T01:13:47.031Z,54.96
2022-08-21T01:16:17.800Z,54.97
2022-08-21T01:18:45.835Z,54.95
2022-08-21T01:21:28.369Z,55.09
2022-08-21T01:23:56.766Z,55.42
2022-08-21T01:26:33.756Z,55.43
2022-08-21T01:29:06.580Z,55.22
2022-08-21T01:31:33.982Z,55.57
2022-08-21T01:34:00.805Z,55.39
2022-08-21T01:36:27.736Z,55.37
2022-08-21T01:38:54.391Z,55.45
2022-08-21T01:41:20.966Z,55.40
2022-08-21T01:43:47.682Z,55.71
2022-08-21T01:46:15.419Z,55.60
2022-08-21T01:48:42.964Z,55.77
2022-08-21T01:51:09.839Z,55.65
2022-08-21T01:53:37.653Z,55.75
2022-08-21T01:56:11.886Z,55.78
2022-08-21T01:58:40.851Z,55.78
2022-08-21T02:01:07.653Z,55.49
2022-08-21T02:03:36.170Z,55.69
2022-08-21T02:06:04.559Z,55.78
2022-08-21T02:08:31.279Z,55.62
2022-08-21T02:10:57.799Z,55.69
2022-08-21T02:13:24.390Z,55.53
2022-08-21T02:15:50.822Z,55.84
2022-08-21T02:18:17.257Z,55.85
2022-08-21T02:20:48.266Z,55.64
2022-08-21T02:23:15.785Z,55.94
2022-08-21T02:25:43.085Z,56.01
2022-08-21T02:28:12.812Z,55.87
2022-08-21T02:30:46.087Z,55.89
2022-08-21T02:33:13.646Z,56.11
2022-08-21T02:35:43.035Z,56.04
2022-08-21T02:38:13.057Z,55.84
2022-08-21T02:40:43.884Z,56.02
2022-08-21T02:43:16.442Z,55.98
2022-08-21T02:45:45.529Z,56.03
2022-08-21T02:48:15.667Z,55.85
2022-08-21T02:50:45.411Z,55.99
2022-08-21T02:53:17.188Z,56.06
2022-08-21T02:55:48.567Z,56.10
2022-08-21T02:58:18.630Z,55.97
2022-08-21T03:00:45.762Z,56.26
2022-08-21T03:03:15.427Z,56.21
2022-08-21T03:05:42.050Z,56.34
2022-08-21T03:08:11.306Z,56.13
2022-08-21T03:10:44.098Z,56.33
2022-08-21T03:13:11.455Z,56.49
2022-08-21T03:15:39.280Z,56.13
2022-08-21T03:18:06.636Z,56.34
2022-08-21T03:20:35.143Z,56.48
2022-08-21T03:23:02.776Z,56.39
2022-08-21T03:25:40.440Z,56.58
2022-08-21T03:28:13.331Z,56.64
2022-08-21T03:30:47.397Z,56.51
2022-08-21T03:33:15.437Z,56.62
2022-08-21T03:35:43.997Z,56.56
2022-08-21T03:38:10.771Z,56.73
2022-08-21T03:40:37.228Z,56.74
2022-08-21T03:43:03.673Z,56.77
2022-08-21T03:45:30.272Z,56.57
2022-08-21T03:47:58.650Z,57.13
2022-08-21T03:50:27.806Z,56.72
2022-08-21T03:52:55.089Z,56.71
2022-08-21T03:55:21.857Z,56.88
2022-08-21T03:57:48.351Z,56.73
2022-08-21T04:00:16.563Z,56.87
2022-08-21T04:02:44.574Z,56.95
2022-08-21T04:05:13.665Z,56.77
2022-08-21T04:07:40.179Z,57.05
2022-08-21T04:10:08.081Z,57.04
2022-08-21T04:12:34.652Z,56.94
2022-08-21T04:15:02.729Z,57.01
2022-08-21T04:17:29.231Z,57.13
2022-08-21T04:19:56.005Z,57.10
2022-08-21T04:22:22.794Z,57.21
2022-08-21T04:24:49.231Z,57.11
2022-08-21T04:27:15.718Z,57.21
2022-08-21T04:29:42.154Z,57.39
2022-08-21T04:32:08.747Z,57.35
2022-08-21T04:34:35.239Z,57.25
2022-08-21T04:37:01.666Z,57.18
2022-08-21T04:39:29.777Z,57.19
2022-08-21T04:41:56.672Z,57.35
2022-08-21T04:44:23.125Z,57.36
2022-08-21T04:46:49.579Z,57.54
2022-08-21T04:49:16.025Z,57.59
2022-08-21T04:51:42.633Z,57.43
2022-08-21T04:54:17.575Z,57.63
2022-08-21T04:56:47.305Z,57.59
2022-08-21T04:59:18.301Z,57.62
2022-08-21T05:01:46.064Z,57.57
2022-08-21T05:04:17.710Z,57.60
2022-08-21T05:06:47.598Z,57.70
2022-08-21T05:09:17.353Z,57.62
2022-08-21T05:11:44.859Z,57.70
2022-08-21T05:14:12.482Z,57.82
2022-08-21T05:16:39.570Z,57.79
2022-08-21T05:19:07.255Z,57.84
2022-08-21T05:21:35.672Z,57.89
2022-08-21T05:24:02.639Z,57.90
2022-08-21T05:26:29.124Z,58.06
2022-08-21T05:28:55.562Z,58.13
2022-08-21T05:31:24.065Z,58.21
2022-08-21T05:33:50.498Z,58.23
2022-08-21T05:36:19.339Z,58.30
2022-08-21T05:38:46.135Z,58.30
2022-08-21T05:41:12.765Z,58.12
2022-08-21T05:43:39.241Z,58.13
2022-08-21T05:46:07.433Z,58.19
2022-08-21T05:48:35.321Z,58.23
2022-08-21T05:51:08.056Z,58.29
2022-08-21T05:53:34.541Z,58.53
2022-08-21T05:56:01.314Z,58.65
2022-08-21T05:58:27.807Z,58.64
2022-08-21T06:00:54.415Z,58.63
2022-08-21T06:03:25.323Z,58.80
2022-08-21T06:05:52.814Z,58.64
2022-08-21T06:08:20.383Z,58.71
2022-08-21T06:10:48.805Z,58.80
2022-08-21T06:13:16.607Z,58.62
2022-08-21T06:15:43.365Z,58.90
2022-08-21T06:18:10.211Z,58.68
2022-08-21T06:20:37.012Z,58.84
2022-08-21T06:23:03.954Z,58.67
2022-08-21T06:25:30.817Z,58.80
2022-08-21T06:28:07.713Z,59.00
2022-08-21T06:30:34.858Z,58.66
2022-08-21T06:33:02.476Z,59.00
2022-08-21T06:35:30.060Z,58.89
2022-08-21T06:37:58.360Z,58.70
2022-08-21T06:40:25.866Z,58.83
2022-08-21T06:42:52.405Z,58.79
2022-08-21T06:45:18.919Z,58.94
2022-08-21T06:47:45.437Z,58.72
2022-08-21T06:50:11.886Z,58.73
2022-08-21T06:52:38.838Z,58.78
2022-08-21T06:55:08.368Z,58.80
2022-08-21T06:57:35.314Z,58.78
2022-08-21T07:00:03.797Z,58.80
2022-08-21T07:02:30.513Z,58.95
2022-08-21T07:04:56.973Z,59.20
2022-08-21T07:07:23.526Z,59.26
2022-08-21T07:09:49.946Z,59.62
2022-08-21T07:12:16.562Z,59.87
2022-08-21T07:14:43.755Z,59.50
2022-08-21T07:17:10.299Z,60.00
2022-08-21T07:19:36.767Z,59.75
2022-08-21T07:22:03.422Z,59.95
2022-08-21T07:24:30.270Z,60.46
2022-08-21T07:26:56.807Z,60.09
2022-08-21T07:29:23.313Z,59.76
2022-08-21T07:31:49.824Z,60.26
2022-08-21T07:34:17.363Z,59.99
2022-08-21T07:36:43.842Z,60.04
2022-08-21T07:39:10.287Z,59.81
2022-08-21T07:41:36.745Z,60.14
2022-08-21T07:44:04.040Z,59.61
2022-08-21T07:46:33.174Z,59.55
2022-08-21T07:48:59.656Z,60.00
2022-08-21T07:51:28.547Z,59.62
2022-08-21T07:53:57.917Z,59.75
2022-08-21T07:56:24.509Z,59.67
2022-08-21T07:58:50.997Z,59.42
2022-08-21T08:01:17.890Z,59.87
2022-08-21T08:03:44.645Z,59.55
2022-08-21T08:06:13.266Z,59.36
2022-08-21T08:08:41.559Z,59.32
2022-08-21T08:11:11.653Z,58.91
2022-08-21T08:13:43.101Z,58.99
2022-08-21T08:16:10.079Z,58.92
2022-08-21T08:18:36.656Z,58.77
2022-08-21T08:21:04.379Z,58.73
2022-08-21T08:23:31.491Z,58.49
2022-08-21T08:25:58.112Z,57.91
2022-08-21T08:28:25.533Z,57.60
2022-08-21T08:30:52.465Z,57.23
2022-08-21T08:33:18.974Z,56.93
2022-08-21T08:35:48.489Z,57.15
2022-08-21T08:38:19.656Z,56.89
2022-08-21T08:41:08.899Z,56.43
2022-08-21T08:43:35.846Z,56.72
2022-08-21T08:46:06.850Z,56.59
2022-08-21T08:48:52.802Z,56.65
2022-08-21T08:51:26.496Z,56.37
2022-08-21T08:53:58.175Z,56.37
2022-08-21T08:56:30.715Z,56.51
2022-08-21T08:59:08.063Z,56.50
2022-08-21T09:01:38.754Z,56.37
2022-08-21T09:04:06.884Z,56.47
2022-08-21T09:06:51.303Z,56.51
2022-08-21T09:09:23.522Z,56.60
2022-08-21T09:12:03.029Z,56.39
2022-08-21T09:14:54.120Z,56.12
2022-08-21T09:17:45.189Z,56.36
2022-08-21T09:20:41.523Z,56.20
2022-08-21T09:23:47.671Z,56.46
2022-08-21T09:26:18.019Z,56.46
2022-08-21T09:28:45.799Z,56.25
2022-08-21T09:31:35.397Z,56.45
2022-08-21T09:34:10.965Z,56.39
2022-08-21T09:36:46.770Z,56.09
2022-08-21T09:39:23.383Z,55.86
2022-08-21T09:41:59.279Z,55.64
2022-08-21T09:44:32.774Z,55.63
2022-08-21T09:46:59.252Z,55.68
2022-08-21T09:49:37.193Z,55.63
2022-08-21T09:52:07.570Z,55.48
2022-08-21T09:54:38.243Z,55.45
2022-08-21T09:57:29.394Z,55.16
2022-08-21T09:59:56.314Z,55.28
2022-08-21T10:02:32.174Z,55.09
2022-08-21T10:05:00.208Z,54.92
2022-08-21T10:07:31.133Z,54.65
2022-08-21T10:10:06.024Z,54.71
2022-08-21T10:13:02.778Z,54.62
2022-08-21T10:15:43.823Z,54.69
2022-08-21T10:18:30.911Z,54.58
2022-08-21T10:21:12.256Z,54.39
2022-08-21T10:23:51.810Z,54.46
2022-08-21T10:26:49.561Z,54.49
2022-08-21T10:29:40.479Z,54.44
2022-08-21T10:32:31.849Z,54.26
2022-08-21T10:35:03.107Z,54.20
2022-08-21T10:37:47.264Z,53.96
2022-08-21T10:40:23.094Z,54.36
2022-08-21T10:43:01.554Z,54.20
2022-08-21T10:45:40.142Z,54.06
2022-08-21T10:48:14.097Z,53.61
2022-08-21T10:50:50.294Z,53.30
2022-08-21T10:53:33.662Z,53.84
2022-08-21T10:56:27.179Z,53.83
2022-08-21T10:59:26.753Z,53.81
2022-08-21T11:02:09.960Z,53.64
2022-08-21T11:04:54.769Z,53.86
2022-08-21T11:07:34.016Z,53.35
2022-08-21T11:10:12.114Z,53.44
2022-08-21T11:12:45.778Z,53.05
2022-08-21T11:15:29.216Z,52.41
2022-08-21T11:18:42.609Z,52.56
2022-08-21T11:21:40.091Z,52.70
2022-08-21T11:24:34.958Z,52.50
2022-08-21T11:27:15.983Z,52.19
2022-08-21T11:29:48.702Z,52.27
2022-08-21T11:32:36.794Z,52.44
2022-08-21T11:35:11.953Z,52.89
2022-08-21T11:37:56.737Z,52.24
2022-08-21T11:40:38.572Z,52.06
2022-08-21T11:43:13.234Z,51.86
2022-08-21T11:45:52.631Z,51.49
2022-08-21T11:48:49.711Z,51.94
2022-08-21T11:51:29.395Z,51.63
2022-08-21T11:54:10.149Z,51.69
2022-08-21T11:56:43.494Z,51.46
2022-08-21T11:59:13.994Z,51.34
2022-08-21T12:01:46.211Z,50.69
2022-08-21T12:04:43.046Z,50.72
2022-08-21T12:07:18.634Z,49.83
2022-08-21T12:09:57.165Z,49.09
2022-08-21T12:12:30.395Z,49.12
2022-08-21T12:15:18.117Z,50.01
2022-08-21T12:17:56.797Z,49.55
2022-08-21T12:20:30.402Z,48.74
2022-08-21T12:23:05.676Z,48.52
2022-08-21T12:25:48.495Z,48.31
2022-08-21T12:28:22.617Z,48.30
2022-08-21T12:30:52.060Z,48.04
2022-08-21T12:33:37.082Z,47.20
2022-08-21T12:36:17.363Z,46.69
2022-08-21T12:38:52.030Z,47.51
2022-08-21T12:41:48.810Z,47.56
2022-08-21T12:44:22.279Z,47.70
2022-08-21T12:46:58.565Z,47.39
2022-08-21T12:49:36.018Z,47.62
2022-08-21T12:52:12.608Z,47.12
2022-08-21T12:54:44.395Z,47.74
2022-08-21T12:57:21.672Z,48.13
2022-08-21T12:59:55.700Z,47.88
2022-08-21T13:02:27.180Z,47.71
2022-08-21T13:04:56.464Z,48.04
2022-08-21T13:07:33.059Z,47.58
2022-08-21T13:10:19.997Z,47.50
2022-08-21T13:12:47.511Z,47.95
2022-08-21T13:15:14.874Z,47.74
2022-08-21T13:17:52.535Z,47.43
2022-08-21T13:20:24.436Z,47.72
2022-08-21T13:22:51.783Z,47.39
2022-08-21T13:25:22.481Z,47.02
2022-08-21T13:28:12.492Z,46.47
2022-08-21T13:30:44.238Z,46.12
2022-08-21T13:33:13.507Z,46.09
2022-08-21T13:35:58.096Z,46.99
2022-08-21T13:38:28.106Z,46.92
2022-08-21T13:41:31.732Z,46.04
2022-08-21T13:44:01.551Z,46.53
2022-08-21T13:46:31.587Z,46.40
2022-08-21T13:49:01.118Z,46.29
2022-08-21T13:51:28.073Z,46.63
2022-08-21T13:53:56.220Z,46.90
2022-08-21T13:56:41.955Z,47.61
2022-08-21T13:59:08.492Z,47.25
2022-08-21T14:01:58.133Z,47.73
2022-08-21T14:04:31.869Z,47.92
2022-08-21T14:06:58.711Z,47.10
2022-08-21T14:09:31.976Z,46.58
2022-08-21T14:12:02.162Z,46.95
2022-08-21T14:14:34.784Z,46.81
2022-08-21T14:17:24.015Z,46.70
2022-08-21T14:19:52.255Z,46.50
2022-08-21T14:22:31.351Z,46.48
2022-08-21T14:25:21.024Z,45.86
2022-08-21T14:27:50.461Z,45.60
2022-08-21T14:30:22.004Z,46.03
2022-08-21T14:32:48.940Z,45.52
2022-08-21T14:35:15.745Z,45.33
2022-08-21T14:37:43.509Z,45.51
2022-08-21T14:40:10.896Z,45.55
2022-08-21T14:42:38.179Z,45.95
2022-08-21T14:45:24.746Z,46.07
2022-08-21T14:47:54.897Z,46.17
2022-08-21T14:50:21.486Z,46.12
2022-08-21T14:52:48.004Z,46.35
2022-08-21T14:55:17.681Z,46.29
2022-08-21T14:57:50.897Z,46.76
2022-08-21T15:00:23.761Z,46.96
2022-08-21T15:02:53.651Z,46.81
2022-08-21T15:05:31.507Z,46.75
2022-08-21T15:07:59.698Z,47.26
2022-08-21T15:10:26.231Z,46.78
2022-08-21T15:12:52.762Z,47.20
2022-08-21T15:15:19.226Z,47.56
2022-08-21T15:17:48.292Z,46.91
2022-08-21T15:20:15.274Z,46.68
2022-08-21T15:22:41.772Z,47.05
2022-08-21T15:25:14.364Z,47.37
2022-08-21T15:27:41.112Z,46.98
2022-08-21T15:30:08.640Z,46.10
2022-08-21T15:32:35.212Z,46.03
2022-08-21T15:35:03.261Z,45.61
2022-08-21T15:37:30.041Z,45.43
2022-08-21T15:39:56.511Z,46.43
2022-08-21T15:42:24.323Z,45.82
2022-08-21T15:44:51.155Z,45.52
2022-08-21T15:47:21.949Z,45.32
2022-08-21T15:49:48.951Z,45.31
2022-08-21T15:52:19.351Z,44.39
2022-08-21T15:54:46.347Z,44.19
2022-08-21T15:57:14.940Z,44.68
2022-08-21T15:59:44.725Z,44.75
2022-08-21T16:02:16.630Z,45.28
2022-08-21T16:04:43.171Z,45.90
2022-08-21T16:07:10.409Z,45.51
2022-08-21T16:09:37.464Z,45.78
2022-08-21T16:12:06.478Z,45.81
2022-08-21T16:14:37.007Z,46.36
2022-08-21T16:17:08.342Z,46.53
2022-08-21T16:19:36.722Z,45.80
2022-08-21T16:22:03.401Z,46.68
2022-08-21T16:24:29.967Z,46.91
2022-08-21T16:26:58.310Z,46.54
2022-08-21T16:29:28.608Z,46.42
2022-08-21T16:31:55.850Z,46.36
2022-08-21T16:34:22.330Z,46.90
2022-08-21T16:36:48.800Z,47.08
2022-08-21T16:39:15.344Z,46.95
2022-08-21T16:41:41.890Z,46.78
2022-08-21T16:44:09.786Z,47.14
2022-08-21T16:46:40.814Z,46.21
2022-08-21T16:49:07.938Z,46.88
2022-08-21T16:51:34.514Z,46.86
2022-08-21T16:54:01.317Z,46.99
2022-08-21T16:56:27.854Z,47.13
2022-08-21T16:58:56.267Z,47.21
2022-08-21T17:01:26.426Z,46.77
2022-08-21T17:03:53.889Z,46.84
2022-08-21T17:06:23.779Z,46.65
2022-08-21T17:08:55.573Z,46.69
2022-08-21T17:11:37.549Z,46.46
2022-08-21T17:14:20.957Z,46.19
2022-08-21T17:16:51.179Z,45.65
2022-08-21T17:19:19.191Z,45.95
2022-08-21T17:21:45.810Z,45.50
2022-08-21T17:24:15.440Z,45.74
2022-08-21T17:26:43.921Z,45.88
2022-08-21T17:29:12.525Z,45.85
2022-08-21T17:31:40.847Z,45.85
2022-08-21T17:34:08.532Z,45.88
2022-08-21T17:36:35.565Z,46.20
2022-08-21T17:39:02.264Z,46.44
2022-08-21T17:41:28.792Z,46.48
2022-08-21T17:43:55.476Z,46.93
2022-08-21T17:46:26.717Z,46.49
2022-08-21T17:48:53.802Z,46.52
2022-08-21T17:51:20.611Z,46.65
2022-08-21T17:53:47.120Z,47.00
2022-08-21T17:56:16.413Z,47.00
2022-08-21T17:58:47.204Z,47.13
2022-08-21T18:01:13.899Z,47.38
2022-08-21T18:03:40.729Z,47.49
2022-08-21T18:06:07.431Z,47.41
2022-08-21T18:08:34.676Z,47.73
2022-08-21T18:11:01.327Z,47.42
2022-08-21T18:13:35.304Z,47.20
2022-08-21T18:16:03.122Z,47.49
2022-08-21T18:18:39.887Z,47.53
2022-08-21T18:21:06.656Z,47.32
2022-08-21T18:23:44.368Z,47.57
2022-08-21T18:26:14.291Z,47.29
2022-08-21T18:28:40.913Z,47.48
2022-08-21T18:31:09.747Z,47.58
2022-08-21T18:33:37.675Z,47.73
2022-08-21T18:36:04.832Z,47.72
2022-08-21T18:38:31.514Z,47.74
2022-08-21T18:41:09.530Z,47.78
2022-08-21T18:43:37.902Z,47.44
2022-08-21T18:46:05.071Z,47.46
2022-08-21T18:48:32.240Z,47.62
2022-08-21T18:50:59.066Z,47.67
2022-08-21T18:53:27.868Z,47.80
2022-08-21T18:55:57.068Z,47.47
2022-08-21T18:58:24.398Z,47.72
2022-08-21T19:00:52.631Z,47.48
2022-08-21T19:03:23.916Z,47.53
2022-08-21T19:05:52.193Z,47.74
2022-08-21T19:08:23.064Z,47.82
2022-08-21T19:10:52.108Z,47.91
2022-08-21T19:13:21.806Z,48.18
2022-08-21T19:15:52.637Z,48.15
2022-08-21T19:18:28.017Z,48.07
2022-08-21T19:20:56.105Z,48.36
2022-08-21T19:23:28.981Z,48.30
2022-08-21T19:28:50.553Z,48.34
2022-08-21T19:31:27.637Z,48.22
2022-08-21T19:34:01.579Z,48.56
2022-08-21T19:36:28.666Z,48.65
2022-08-21T19:38:55.165Z,48.64
2022-08-21T19:41:30.297Z,48.39
2022-08-21T19:43:59.574Z,48.63
2022-08-21T19:46:31.088Z,48.87
2022-08-21T19:48:59.007Z,48.71
2022-08-21T19:51:26.192Z,48.88
2022-08-21T19:53:57.204Z,49.29
2022-08-21T19:56:26.636Z,49.36
2022-08-21T19:58:53.539Z,49.25
2022-08-21T20:01:23.138Z,49.16
2022-08-21T20:03:54.137Z,49.21
2022-08-21T20:06:24.215Z,49.33
2022-08-21T20:08:51.518Z,49.37
2022-08-21T20:11:26.063Z,49.42
2022-08-21T20:13:53.384Z,49.44
2022-08-21T20:16:21.497Z,49.58
2022-08-21T20:18:48.915Z,49.64
2022-08-21T20:21:15.762Z,49.50
2022-08-21T20:23:48.845Z,49.75
2022-08-21T20:26:16.519Z,49.75
2022-08-21T20:28:43.133Z,49.88
2022-08-21T20:31:10.463Z,49.81
2022-08-21T20:33:37.932Z,49.80
2022-08-21T20:36:04.607Z,49.67
2022-08-21T20:38:31.686Z,49.74
2022-08-21T20:40:58.466Z,49.95
2022-08-21T20:43:26.746Z,49.97
2022-08-21T20:45:55.252Z,50.03
2022-08-21T20:48:29.016Z,50.08
2022-08-21T20:51:14.518Z,50.09
2022-08-21T20:54:00.565Z,50.49
2022-08-21T20:56:36.756Z,50.39
2022-08-21T20:59:11.290Z,50.25
2022-08-21T21:01:38.908Z,50.11
2022-08-21T21:04:13.979Z,50.43
2022-08-21T21:06:50.553Z,50.31
2022-08-21T21:09:29.343Z,50.54
2022-08-21T21:12:03.047Z,50.52
2022-08-21T21:14:41.555Z,50.33
2022-08-21T21:17:28.223Z,50.33
2022-08-21T21:20:10.419Z,50.43
2022-08-21T21:22:56.236Z,50.61
2022-08-21T21:25:39.928Z,50.67
2022-08-21T21:28:12.966Z,50.61
2022-08-21T21:30:46.647Z,50.88
2022-08-21T21:33:16.597Z,50.87
2022-08-21T21:35:53.984Z,51.04
2022-08-21T21:38:51.790Z,50.95
2022-08-21T21:41:44.783Z,51.10
2022-08-21T21:44:33.808Z,51.16
2022-08-21T21:47:03.582Z,51.32
2022-08-21T21:49:36.069Z,51.35
2022-08-21T21:52:14.619Z,51.36
2022-08-21T21:55:05.324Z,51.44
2022-08-21T21:58:16.979Z,51.60
2022-08-21T22:00:52.351Z,51.55
2022-08-21T22:04:20.600Z,51.57
2022-08-21T22:07:12.438Z,51.60
2022-08-21T22:09:44.523Z,51.74
2022-08-21T22:12:29.797Z,52.23
2022-08-21T22:14:57.187Z,51.98
2022-08-21T22:17:46.395Z,51.96
2022-08-21T22:20:34.435Z,52.09
2022-08-21T22:23:06.652Z,52.28
2022-08-21T22:25:42.279Z,51.98
2022-08-21T22:28:13.667Z,52.26
2022-08-21T22:30:50.222Z,52.22
2022-08-21T22:33:29.273Z,52.15
2022-08-21T22:35:58.824Z,52.26
2022-08-21T22:38:33.736Z,52.41
2022-08-21T22:41:17.293Z,52.44
2022-08-21T22:43:51.724Z,52.64
2022-08-21T22:46:30.363Z,52.44
2022-08-21T22:49:05.170Z,52.54
2022-08-21T22:51:42.512Z,52.65
2022-08-21T22:54:21.652Z,52.96
2022-08-21T22:56:59.214Z,52.96
2022-08-21T22:59:29.832Z,53.05
2022-08-21T23:02:07.324Z,52.98
2022-08-21T23:04:48.195Z,52.95
2022-08-21T23:07:34.034Z,52.87
2022-08-21T23:10:01.262Z,53.31
2022-08-21T23:12:37.111Z,53.39
2022-08-21T23:18:21.098Z,53.41
2022-08-21T23:20:57.578Z,53.45
2022-08-21T23:23:30.842Z,53.45
2022-08-21T23:26:25.536Z,53.44
2022-08-21T23:29:12.597Z,53.55
2022-08-21T23:32:19.382Z,53.63
2022-08-21T23:35:10.287Z,53.78
2022-08-21T23:37:51.654Z,53.74
2022-08-21T23:40:50.487Z,53.59
2022-08-21T23:43:44.170Z,53.75
2022-08-21T23:46:47.763Z,53.86
2022-08-21T23:49:45.189Z,54.16
2022-08-21T23:52:34.968Z,53.91
2022-08-21T23:55:13.549Z,54.21
2022-08-21T23:58:12.273Z,54.18
